Admiral — WCY6529 — position and weather

sailwx.info

Track history (hours):
 
Tides and Currents Weather Stations Pressure Air Temp Water Temp Dewpoint Dewpoint Depression Visibility Wind Speed Wind Dir Waves Ship Positions

Admiral

Owner: Crowley Marine Services, SEATTLE, WA. More information available from US FCC via Universal Licensing System and Coast Guard Vessel Documentation Center.

Last reported at 2017-Sep-24 14:00 UTC. Time now 2017-Sep-24 14:11 UTC.
Position N 33°44' W 118°17'.

; draft 5.3 m.

Type: Tug. MMSI: 366755020.

Date/timePositionNaut miles runAvg speedWind from/ knotsBaromVisibWave heightAir tempDewpointWater temp
2017-Sep-24 14:00N 33°44' W 118°17'0 0.0
2017-Sep-24 13:31N 33°44' W 118°17'0 0.0
2017-Sep-24 13:00N 33°44' W 118°17'0 0.0
2017-Sep-24 12:31N 33°44' W 118°17'0 0.0
2017-Sep-24 12:00N 33°44' W 118°17'0 0.0
2017-Sep-24 11:30N 33°44' W 118°17'0 0.0
2017-Sep-24 11:00N 33°44' W 118°17'0 0.0
2017-Sep-24 10:30N 33°44' W 118°17'0 0.0
2017-Sep-24 10:00N 33°44' W 118°17'0 0.7
2017-Sep-24 09:30N 33°44' W 118°17'3 5.8
2017-Sep-24 09:00N 33°44' W 118°13'1 2.7
2017-Sep-24 08:30N 33°46' W 118°13'0 0.2
2017-Sep-24 08:00N 33°45' W 118°13'0 0.0
2017-Sep-24 07:30N 33°45' W 118°13'2 4.3
2017-Sep-24 06:56N 33°43' W 118°14'3 5.9
2017-Sep-24 06:31N 33°44' W 118°17'0 0.3
2017-Sep-24 06:00N 33°44' W 118°17'0 0.0
2017-Sep-24 05:30N 33°44' W 118°17'0 0.0
2017-Sep-24 05:01N 33°44' W 118°17'0 0.0
2017-Sep-24 04:30N 33°44' W 118°17'0 0.0
2017-Sep-24 04:01N 33°44' W 118°17'0 0.0
2017-Sep-24 03:30N 33°44' W 118°17'0 0.0
2017-Sep-24 03:00N 33°44' W 118°17'0 0.0
2017-Sep-24 02:31N 33°44' W 118°17'0 0.0
2017-Sep-24 02:00N 33°44' W 118°17'0 0.0
2017-Sep-24 01:31N 33°44' W 118°17'0 0.0
2017-Sep-24 01:01N 33°44' W 118°17'0 0.0
2017-Sep-24 00:30N 33°44' W 118°17'0 0.0
2017-Sep-24 00:00N 33°44' W 118°17'0 0.0
2017-Sep-23 23:31N 33°44' W 118°17'0 0.0
2017-Sep-23 23:00N 33°44' W 118°17'0 0.0
2017-Sep-23 22:30N 33°44' W 118°17'0 0.0
2017-Sep-23 21:57N 33°44' W 118°17'0 0.0
2017-Sep-23 21:30N 33°44' W 118°17'0 0.0
2017-Sep-23 21:00N 33°44' W 118°17'0 0.0
2017-Sep-23 20:31N 33°44' W 118°17'0 0.0
2017-Sep-23 19:59N 33°44' W 118°17'3 0.1
2017-Sep-22 01:57N 33°45' W 118°13'0 0.4
2017-Sep-22 01:29N 33°45' W 118°13'3 6.2
2017-Sep-22 01:00N 33°43' W 118°15'2 4.2
2017-Sep-22 00:31N 33°44' W 118°17'0 0.0
2017-Sep-22 00:00N 33°44' W 118°17'0 0.0
2017-Sep-21 23:30N 33°44' W 118°17'0 0.0
2017-Sep-21 23:00N 33°44' W 118°17'0 0.0
2017-Sep-21 22:26N 33°44' W 118°17'0 0.0
2017-Sep-21 21:57N 33°44' W 118°17'0 0.0
2017-Sep-21 21:30N 33°44' W 118°17'0 0.0
2017-Sep-21 21:01N 33°44' W 118°17'0 0.0
2017-Sep-21 20:31N 33°44' W 118°17'0 0.0
2017-Sep-21 20:01N 33°44' W 118°17'0 0.0
2017-Sep-21 19:30N 33°44' W 118°17'0 0.0
2017-Sep-21 19:00N 33°44' W 118°17'0 0.0
2017-Sep-21 18:29N 33°44' W 118°17'1 1.3
2017-Sep-21 17:59N 33°44' W 118°16'0 0.0
2017-Sep-21 17:30N 33°44' W 118°16'0 0.0
2017-Sep-21 17:01N 33°44' W 118°16'0 0.0
2017-Sep-21 16:30N 33°44' W 118°16'1 1.3
2017-Sep-21 16:00N 33°44' W 118°17'0 0.0
2017-Sep-21 15:27N 33°44' W 118°17'0 0.7
2017-Sep-21 15:00N 33°45' W 118°16'0 0.7
2017-Sep-21 14:30N 33°45' W 118°16'1 2.3
2017-Sep-21 14:01N 33°44' W 118°16'2 3.3
2017-Sep-21 13:27N 33°43' W 118°15'1 2.9
2017-Sep-21 13:00N 33°43' W 118°16'1 2.5
2017-Sep-21 12:31N 33°44' W 118°17'0 0.0
2017-Sep-21 11:53N 33°44' W 118°17'1 3.0
2017-Sep-21 11:30N 33°44' W 118°16'1 1.1
2017-Sep-21 11:00N 33°44' W 118°15'1 2.2
2017-Sep-21 10:31N 33°43' W 118°16'1 1.5
2017-Sep-21 10:00N 33°44' W 118°15'0 0.6
2017-Sep-21 09:29N 33°44' W 118°15'1 2.7
2017-Sep-21 09:00N 33°44' W 118°17'0 0.9
2017-Sep-21 08:29N 33°44' W 118°17'0 0.0
2017-Sep-21 08:00N 33°44' W 118°17'0 0.0
2017-Sep-21 07:30N 33°44' W 118°17'0 0.0
2017-Sep-21 07:00N 33°44' W 118°17'0 0.0
2017-Sep-21 06:30N 33°44' W 118°17'0 0.0
2017-Sep-21 06:00N 33°44' W 118°17'0 0.0
2017-Sep-21 05:30N 33°44' W 118°17'0 0.0
2017-Sep-21 05:00N 33°44' W 118°17'0 0.0
2017-Sep-21 04:29N 33°44' W 118°17'0 0.0
2017-Sep-21 03:59N 33°44' W 118°17'0 0.0
2017-Sep-21 03:30N 33°44' W 118°17'0 0.0
2017-Sep-21 03:00N 33°44' W 118°17'0 0.0
2017-Sep-21 02:30N 33°44' W 118°17'0 0.0
2017-Sep-21 02:00N 33°44' W 118°17'0 0.0
2017-Sep-21 01:30N 33°44' W 118°17'1 1.7
2017-Sep-21 01:00N 33°44' W 118°16'1 2.3
2017-Sep-21 00:30N 33°45' W 118°16'2 3.4
2017-Sep-21 00:00N 33°46' W 118°15'1 2.6
2017-Sep-20 23:30N 33°45' W 118°16'0 0.1
2017-Sep-20 23:00N 33°45' W 118°16'1 2.2
2017-Sep-20 22:30N 33°44' W 118°17'2 4.0
2017-Sep-20 22:00N 33°43' W 118°15'1 2.7
2017-Sep-20 21:30N 33°43' W 118°16'1 2.1
2017-Sep-20 20:59N 33°44' W 118°17'0 0.0
2017-Sep-20 20:30N 33°44' W 118°17'0 0.1
2017-Sep-20 20:00N 33°44' W 118°17'1 2.8
2017-Sep-20 19:30N 33°46' W 118°16'0 0.1
2017-Sep-20 19:00N 33°46' W 118°16'1 1.9
2017-Sep-20 18:30N 33°45' W 118°16'0 0.8
2017-Sep-20 18:00N 33°44' W 118°17'0 0.0
2017-Sep-20 17:30N 33°44' W 118°17'0 0.0
2017-Sep-20 17:00N 33°44' W 118°17'0 0.0
2017-Sep-20 16:30N 33°44' W 118°17'0 0.0
2017-Sep-20 16:00N 33°44' W 118°17'0 0.0
2017-Sep-20 15:30N 33°44' W 118°17'0 0.0
2017-Sep-20 14:59N 33°44' W 118°17'0 0.0
2017-Sep-20 14:00N 33°44' W 118°17'1 1.2
2017-Sep-20 13:30N 33°45' W 118°16'1 1.5
2017-Sep-20 12:59N 33°46' W 118°16'1 1.2
2017-Sep-20 12:30N 33°45' W 118°16'1 2.0
2017-Sep-20 12:00N 33°44' W 118°17'2 4.1
2017-Sep-20 11:30N 33°43' W 118°15'1 2.4
2017-Sep-20 11:00N 33°44' W 118°15'0 0.9
2017-Sep-20 10:30N 33°44' W 118°15'1 2.7
2017-Sep-20 10:00N 33°43' W 118°15'2 3.8
2017-Sep-20 09:30N 33°44' W 118°16'1 1.1
2017-Sep-20 08:57N 33°44' W 118°17'0 0.0
2017-Sep-20 08:26N 33°44' W 118°17'0 0.0
2017-Sep-20 07:59N 33°44' W 118°17'0 0.0
2017-Sep-20 07:30N 33°44' W 118°17'0 0.0
2017-Sep-20 07:00N 33°44' W 118°17'0 0.0
2017-Sep-20 06:26N 33°44' W 118°17'0 0.0
2017-Sep-20 05:58N 33°44' W 118°17'0 0.0
2017-Sep-20 05:28N 33°44' W 118°17'0 0.0
2017-Sep-20 04:57N 33°44' W 118°17'0 0.0
2017-Sep-20 04:30N 33°44' W 118°17'0 0.0
2017-Sep-20 03:59N 33°44' W 118°17'0 0.0
2017-Sep-20 03:30N 33°44' W 118°17'0 0.0
2017-Sep-20 03:00N 33°44' W 118°17'0 0.0
2017-Sep-20 02:30N 33°44' W 118°17'0 0.0
2017-Sep-20 02:00N 33°44' W 118°17'0 0.0
2017-Sep-20 01:29N 33°44' W 118°17'3 5.7
2017-Sep-20 01:00N 33°43' W 118°14'2 3.9
2017-Sep-20 00:30N 33°43' W 118°16'2 4.9
2017-Sep-20 00:00N 33°46' W 118°16'1 2.0
2017-Sep-19 23:30N 33°46' W 118°14'0 0.6
2017-Sep-19 23:00N 33°46' W 118°15'2 4.3
2017-Sep-19 22:31N 33°44' W 118°17'0 0.1
2017-Sep-19 21:59N 33°44' W 118°17'0 0.1
2017-Sep-19 21:29N 33°44' W 118°17'0 0.0
2017-Sep-19 21:00N 33°44' W 118°17'1 1.4
2017-Sep-19 20:31N 33°45' W 118°16'1 2.0
2017-Sep-19 20:01N 33°46' W 118°16'0 0.2
2017-Sep-19 19:31N 33°46' W 118°16'0 0.7
2017-Sep-19 19:01N 33°45' W 118°16'1 2.2
2017-Sep-19 18:25N 33°44' W 118°17'0 0.0
2017-Sep-19 18:00N 33°44' W 118°17'0 0.0
2017-Sep-19 17:30N 33°44' W 118°17'0 0.0
2017-Sep-19 16:58N 33°44' W 118°17'0 0.0
2017-Sep-19 16:29N 33°44' W 118°17'0 0.0
2017-Sep-19 15:56N 33°44' W 118°17'0 0.0
2017-Sep-19 15:29N 33°44' W 118°17'1 2.2
2017-Sep-19 15:00N 33°43' W 118°16'3 6.1
2017-Sep-19 14:30N 33°45' W 118°13'1 2.8
2017-Sep-19 14:01N 33°46' W 118°13'0 0.0
2017-Sep-19 13:28N 33°46' W 118°13'0 0.3
2017-Sep-19 13:00N 33°46' W 118°13'1 2.4
2017-Sep-19 12:29N 33°45' W 118°13'1 2.1
2017-Sep-19 11:59N 33°44' W 118°13'1 2.4
2017-Sep-19 11:26N 33°45' W 118°14'0 0.1
2017-Sep-19 10:58N 33°45' W 118°14'1 1.2
2017-Sep-19 10:30N 33°45' W 118°13'2 1.8
2017-Sep-19 09:33N 33°44' W 118°12'0 0.1
2017-Sep-19 09:13N 33°44' W 118°12'0 0.2
2017-Sep-19 08:50N 33°44' W 118°12'1 3.2
2017-Sep-19 08:29N 33°45' W 118°12'0 0.9
2017-Sep-19 08:00N 33°44' W 118°12'1 1.5
2017-Sep-19 07:19N 33°45' W 118°13'0 0.0
2017-Sep-19 06:42N 33°45' W 118°13'0 0.0
2017-Sep-19 06:30N 33°45' W 118°13'0 0.0
2017-Sep-19 04:12N 33°45' W 118°13'0 0.0
2017-Sep-19 03:59N 33°45' W 118°13'1 1.4
2017-Sep-19 03:30N 33°46' W 118°13'0 0.8
2017-Sep-19 03:00N 33°46' W 118°13'1 1.9
2017-Sep-19 02:29N 33°45' W 118°13'0 0.6
2017-Sep-19 01:57N 33°45' W 118°13'1 1.6
2017-Sep-19 01:30N 33°45' W 118°14'0 0.5
2017-Sep-19 00:59N 33°45' W 118°14'1 2.0
2017-Sep-19 00:31N 33°45' W 118°13'0 0.0
2017-Sep-18 23:59N 33°45' W 118°13'0 0.0
2017-Sep-18 23:30N 33°45' W 118°13'0 0.4
2017-Sep-18 23:01N 33°45' W 118°13'1 1.5
2017-Sep-18 22:30N 33°44' W 118°12'3 5.9
2017-Sep-18 22:00N 33°42' W 118°11'1 1.7
2017-Sep-18 21:30N 33°42' W 118°11'3 5.7
2017-Sep-18 21:00N 33°45' W 118°13'1 1.3
2017-Sep-18 20:31N 33°44' W 118°12'3 5.9
2017-Sep-18 20:01N 33°44' W 118°09'2 4.6
2017-Sep-18 19:31N 33°44' W 118°12'4 7.8
2017-Sep-18 19:00N 33°44' W 118°16'1 2.0
2017-Sep-18 18:31N 33°44' W 118°17'0 0.0
2017-Sep-18 18:01N 33°44' W 118°17'0 0.0
2017-Sep-18 17:30N 33°44' W 118°17'0 0.0
2017-Sep-18 17:00N 33°44' W 118°17'0 0.0
2017-Sep-18 16:28N 33°44' W 118°17'0 0.0
2017-Sep-18 15:59N 33°44' W 118°17'0 0.0
2017-Sep-18 15:30N 33°44' W 118°17'0 0.0
2017-Sep-18 14:58N 33°44' W 118°17'0 0.0
2017-Sep-18 14:30N 33°44' W 118°17'0 0.0
2017-Sep-18 14:00N 33°44' W 118°17'0 0.0
2017-Sep-18 13:31N 33°44' W 118°17'0 0.2
2017-Sep-18 12:59N 33°44' W 118°17'1 2.3
2017-Sep-18 12:30N 33°44' W 118°16'0 0.5
2017-Sep-18 12:00N 33°44' W 118°16'0 0.0
2017-Sep-18 11:29N 33°44' W 118°16'0 0.0
2017-Sep-18 11:00N 33°44' W 118°16'2 3.2
2017-Sep-18 10:30N 33°43' W 118°14'1 2.4
2017-Sep-18 10:00N 33°44' W 118°13'1 2.2
2017-Sep-18 09:29N 33°45' W 118°13'0 0.3
2017-Sep-18 08:59N 33°45' W 118°13'1 1.0
2017-Sep-18 08:27N 33°45' W 118°13'3 6.6
2017-Sep-18 08:00N 33°43' W 118°16'1 2.7
2017-Sep-18 07:30N 33°44' W 118°17'0 0.0
2017-Sep-18 07:00N 33°44' W 118°17'0 0.0
2017-Sep-18 06:21N 33°44' W 118°17'0 0.0
2017-Sep-18 06:01N 33°44' W 118°17'0 0.0
2017-Sep-18 05:30N 33°44' W 118°17'0 0.0
2017-Sep-18 05:01N 33°44' W 118°17'0 0.0
2017-Sep-18 04:29N 33°44' W 118°17'0 0.0
2017-Sep-18 04:01N 33°44' W 118°17'0 0.0
2017-Sep-18 03:28N 33°44' W 118°17'0 0.0
2017-Sep-18 02:59N 33°44' W 118°17'0 0.0
2017-Sep-18 02:30N 33°44' W 118°17'0 0.0
2017-Sep-18 02:01N 33°44' W 118°17'0 0.0
2017-Sep-18 01:27N 33°44' W 118°17'2 4.1
2017-Sep-18 01:00N 33°43' W 118°15'3 6.5
2017-Sep-18 00:31N 33°45' W 118°13'1 1.8
2017-Sep-17 23:59N 33°46' W 118°14'1 1.8
2017-Sep-17 23:31N 33°46' W 118°13'3 6.6
2017-Sep-17 23:01N 33°43' W 118°15'2 3.7
2017-Sep-17 22:31N 33°44' W 118°17'0 0.0
2017-Sep-17 21:59N 33°44' W 118°17'0 0.0
2017-Sep-17 21:28N 33°44' W 118°17'0 0.0
2017-Sep-17 21:00N 33°44' W 118°17'0 0.0
2017-Sep-17 20:31N 33°44' W 118°17'0 0.0
2017-Sep-17 19:59N 33°44' W 118°17'0 0.0
2017-Sep-17 19:30N 33°44' W 118°17'0 0.0
2017-Sep-17 18:57N 33°44' W 118°17'0 0.0
2017-Sep-17 18:29N 33°44' W 118°17'0 0.0
2017-Sep-17 18:01N 33°44' W 118°17'0 0.0
2017-Sep-17 17:30N 33°44' W 118°17'0 0.0
2017-Sep-17 16:48N 33°44' W 118°17'0 0.0
2017-Sep-17 16:24N 33°44' W 118°17'0 0.0
2017-Sep-17 15:56N 33°44' W 118°17'0 0.8
2017-Sep-17 15:31N 33°44' W 118°17'3 5.4
2017-Sep-17 15:00N 33°44' W 118°13'2 3.9
2017-Sep-17 14:27N 33°46' W 118°13'0 0.0
2017-Sep-17 13:46N 33°46' W 118°13'0 0.6
2017-Sep-17 13:24N 33°46' W 118°13'1 3.1
2017-Sep-17 12:59N 33°45' W 118°13'2 3.7
2017-Sep-17 12:28N 33°44' W 118°11'0 0.3
2017-Sep-17 11:59N 33°44' W 118°12'1 1.5
2017-Sep-17 11:28N 33°43' W 118°12'3 6.6
2017-Sep-17 10:59N 33°44' W 118°16'1 1.4
2017-Sep-17 10:29N 33°44' W 118°17'0 0.0
2017-Sep-17 09:53N 33°44' W 118°17'0 0.0
2017-Sep-17 09:29N 33°44' W 118°17'0 0.0
2017-Sep-17 09:01N 33°44' W 118°17'0 0.0
2017-Sep-17 08:31N 33°44' W 118°17'0 0.0
2017-Sep-17 08:00N 33°44' W 118°17'1 2.0
2017-Sep-17 07:29N 33°45' W 118°16'0 0.7
2017-Sep-17 06:57N 33°46' W 118°16'1 2.6
2017-Sep-17 06:30N 33°45' W 118°17'0 0.5
2017-Sep-17 06:00N 33°44' W 118°17'0 0.0
2017-Sep-17 05:27N 33°44' W 118°17'0 0.0
2017-Sep-17 04:58N 33°44' W 118°17'0 0.0
2017-Sep-17 04:30N 33°44' W 118°17'0 0.0
2017-Sep-17 03:59N 33°44' W 118°17'0 0.0
2017-Sep-17 03:29N 33°44' W 118°17'0 0.0
2017-Sep-17 02:59N 33°44' W 118°17'0 0.0
2017-Sep-17 02:30N 33°44' W 118°17'0 0.0
2017-Sep-17 01:59N 33°44' W 118°17'0 0.0
2017-Sep-17 01:31N 33°44' W 118°17'0 0.0
2017-Sep-17 00:53N 33°44' W 118°17'0 0.0
2017-Sep-17 00:30N 33°44' W 118°17'0 0.0
2017-Sep-16 23:59N 33°44' W 118°17'0 0.0
2017-Sep-16 23:30N 33°44' W 118°17'0 0.0
2017-Sep-16 22:59N 33°44' W 118°17'0 0.0
2017-Sep-16 22:30N 33°44' W 118°17'0 0.0
2017-Sep-16 22:00N 33°44' W 118°17'0 0.0
2017-Sep-16 21:30N 33°44' W 118°17'0 0.0
2017-Sep-16 21:00N 33°44' W 118°17'0 0.0
2017-Sep-16 20:30N 33°44' W 118°17'0 0.0
2017-Sep-16 20:00N 33°44' W 118°17'0 0.0
2017-Sep-16 19:30N 33°44' W 118°17'0 0.0
2017-Sep-16 18:58N 33°44' W 118°17'0 0.0
2017-Sep-16 18:31N 33°44' W 118°17'0 0.0
2017-Sep-16 18:00N 33°44' W 118°17'0 0.0
2017-Sep-16 17:28N 33°44' W 118°17'0 0.0
2017-Sep-16 16:53N 33°44' W 118°17'0 0.0
2017-Sep-16 16:30N 33°44' W 118°17'3 5.3
2017-Sep-16 15:55N 33°44' W 118°13'1 2.1
2017-Sep-16 15:20N 33°45' W 118°13'0 0.4
2017-Sep-16 14:11N 33°45' W 118°13'0 0.0
2017-Sep-16 13:57N 33°45' W 118°13'1 1.6
2017-Sep-16 13:25N 33°45' W 118°13'3 7.2
2017-Sep-16 13:00N 33°43' W 118°16'1 1.9
2017-Sep-16 12:15N 33°44' W 118°17'0 0.0
2017-Sep-16 12:00N 33°44' W 118°17'0 0.0
2017-Sep-16 11:24N 33°44' W 118°17'0 0.0
2017-Sep-16 10:59N 33°44' W 118°17'0 0.0
2017-Sep-16 10:26N 33°44' W 118°17'0 0.0
2017-Sep-16 09:58N 33°44' W 118°17'0 0.0
2017-Sep-16 09:29N 33°44' W 118°17'0 0.0
2017-Sep-16 08:59N 33°44' W 118°17'0 0.0
2017-Sep-16 08:29N 33°44' W 118°17'0 0.0
2017-Sep-16 08:01N 33°44' W 118°17'0 0.0
2017-Sep-16 07:27N 33°44' W 118°17'0 0.0
2017-Sep-16 06:59N 33°44' W 118°17'0 0.0
2017-Sep-16 06:30N 33°44' W 118°17'0 0.0
2017-Sep-16 06:00N 33°44' W 118°17'0 0.0
2017-Sep-16 05:30N 33°44' W 118°17'0 0.0
2017-Sep-16 05:01N 33°44' W 118°17'0 0.0
2017-Sep-16 04:29N 33°44' W 118°17'0 0.0
2017-Sep-16 04:00N 33°44' W 118°17'3 5.4
2017-Sep-16 03:30N 33°43' W 118°14'2 3.4
2017-Sep-16 02:59N 33°45' W 118°12'1 2.7
2017-Sep-16 02:30N 33°44' W 118°13'0 0.3
2017-Sep-16 02:00N 33°44' W 118°12'1 2.5
2017-Sep-16 01:30N 33°45' W 118°12'3 7.0
2017-Sep-16 01:01N 33°43' W 118°16'2 4.9
2017-Sep-16 00:30N 33°46' W 118°16'1 1.2
2017-Sep-16 00:01N 33°46' W 118°15'0 0.5
2017-Sep-15 23:30N 33°46' W 118°15'1 2.0
2017-Sep-15 23:00N 33°45' W 118°16'0 0.0
2017-Sep-15 22:31N 33°45' W 118°16'0 0.4
2017-Sep-15 22:01N 33°45' W 118°16'2 4.4
2017-Sep-15 21:31N 33°43' W 118°16'1 2.2
2017-Sep-15 21:01N 33°43' W 118°15'2 3.7
2017-Sep-15 20:30N 33°44' W 118°16'1 1.2
2017-Sep-15 20:00N 33°44' W 118°17'0 0.0
2017-Sep-15 19:31N 33°44' W 118°17'0 0.0
2017-Sep-15 19:00N 33°44' W 118°17'0 0.2
2017-Sep-15 18:28N 33°45' W 118°17'1 2.4
2017-Sep-15 17:59N 33°46' W 118°16'0 0.1
2017-Sep-15 17:30N 33°46' W 118°16'1 1.9
2017-Sep-15 17:00N 33°45' W 118°17'3 6.5
2017-Sep-15 16:30N 33°42' W 118°15'0 0.8
2017-Sep-15 15:57N 33°42' W 118°15'3 6.4
2017-Sep-15 15:30N 33°45' W 118°16'0 0.9
2017-Sep-15 14:59N 33°45' W 118°16'0 0.0
2017-Sep-15 14:30N 33°45' W 118°16'1 2.3
2017-Sep-15 14:01N 33°46' W 118°15'0 0.4
2017-Sep-15 13:30N 33°46' W 118°15'2 3.2
2017-Sep-15 13:00N 33°45' W 118°17'2 3.2
2017-Sep-15 12:30N 33°43' W 118°16'1 1.7
2017-Sep-15 12:00N 33°43' W 118°15'1 2.8
2017-Sep-15 11:31N 33°44' W 118°16'1 1.5
2017-Sep-15 10:57N 33°44' W 118°17'0 0.0
2017-Sep-15 10:21N 33°44' W 118°17'0 0.0
2017-Sep-15 09:57N 33°44' W 118°17'0 0.0
2017-Sep-15 09:27N 33°44' W 118°17'0 0.0
2017-Sep-15 09:01N 33°44' W 118°17'0 0.0
2017-Sep-15 08:29N 33°44' W 118°17'0 0.0
2017-Sep-15 07:59N 33°44' W 118°17'0 0.0
2017-Sep-15 07:31N 33°44' W 118°17'0 0.0
2017-Sep-15 07:00N 33°44' W 118°17'0 0.0
2017-Sep-15 06:28N 33°44' W 118°17'0 0.0
2017-Sep-15 06:01N 33°44' W 118°17'0 0.0
2017-Sep-15 05:27N 33°44' W 118°17'0 0.0
2017-Sep-15 05:01N 33°44' W 118°17'0 0.0
2017-Sep-15 04:30N 33°44' W 118°17'0 0.0
2017-Sep-15 03:55N 33°44' W 118°17'0 0.0
2017-Sep-15 03:31N 33°44' W 118°17'0 0.0
2017-Sep-15 03:00N 33°44' W 118°17'0 0.0
2017-Sep-15 02:29N 33°44' W 118°17'0 0.0
2017-Sep-15 02:00N 33°44' W 118°17'0 0.0
2017-Sep-15 01:31N 33°44' W 118°17'0 0.0
2017-Sep-15 01:01N 33°44' W 118°17'0 0.0
2017-Sep-15 00:31N 33°44' W 118°17'0 0.0
2017-Sep-14 23:58N 33°44' W 118°17'0 0.0
2017-Sep-14 23:31N 33°44' W 118°17'0 0.0
2017-Sep-14 23:01N 33°44' W 118°17'0 0.0
2017-Sep-14 22:30N 33°44' W 118°17'0 0.0
2017-Sep-14 22:01N 33°44' W 118°17'0 0.0
2017-Sep-14 21:30N 33°44' W 118°17'0 0.0
2017-Sep-14 21:00N 33°44' W 118°17'3 5.2
2017-Sep-14 20:30N 33°43' W 118°14'2 4.6
2017-Sep-14 20:00N 33°45' W 118°13'0 0.0
2017-Sep-14 19:30N 33°45' W 118°13'0 0.0
2017-Sep-14 19:00N 33°45' W 118°13'0 0.2
2017-Sep-14 18:30N 33°45' W 118°13'0 0.2
2017-Sep-14 18:01N 33°45' W 118°13'0 0.5
2017-Sep-14 17:31N 33°45' W 118°13'2 4.4
2017-Sep-14 17:01N 33°44' W 118°11'0 0.9
2017-Sep-14 16:31N 33°44' W 118°12'1 1.8
2017-Sep-14 16:01N 33°43' W 118°13'3 6.4
2017-Sep-14 15:30N 33°44' W 118°17'0 0.5
2017-Sep-14 15:00N 33°44' W 118°17'0 0.0
2017-Sep-14 14:30N 33°44' W 118°17'  
Track history (hours):
 
Tides and Currents Weather Stations Pressure Air Temp Water Temp Dewpoint Dewpoint Depression Visibility Wind Speed Wind Dir Waves Ship Positions

Admiral

Owner: Crowley Marine Services, SEATTLE, WA. More information available from US FCC via Universal Licensing System and Coast Guard Vessel Documentation Center.

Last reported at 2017-Sep-24 14:00 UTC. Time now 2017-Sep-24 14:11 UTC.
Position N 33°44' W 118°17'.

; draft 5.3 m.

Type: Tug. MMSI: 366755020.

Date/timePositionNaut miles runAvg speedWind from/ knotsBaromVisibWave heightAir tempDewpointWater temp
2017-Sep-24 14:00N 33°44' W 118°17'0 0.0
2017-Sep-24 13:31N 33°44' W 118°17'0 0.0
2017-Sep-24 13:00N 33°44' W 118°17'0 0.0
2017-Sep-24 12:31N 33°44' W 118°17'0 0.0
2017-Sep-24 12:00N 33°44' W 118°17'0 0.0
2017-Sep-24 11:30N 33°44' W 118°17'0 0.0
2017-Sep-24 11:00N 33°44' W 118°17'0 0.0
2017-Sep-24 10:30N 33°44' W 118°17'0 0.0
2017-Sep-24 10:00N 33°44' W 118°17'0 0.7
2017-Sep-24 09:30N 33°44' W 118°17'3 5.8
2017-Sep-24 09:00N 33°44' W 118°13'1 2.7
2017-Sep-24 08:30N 33°46' W 118°13'0 0.2
2017-Sep-24 08:00N 33°45' W 118°13'0 0.0
2017-Sep-24 07:30N 33°45' W 118°13'2 4.3
2017-Sep-24 06:56N 33°43' W 118°14'3 5.9
2017-Sep-24 06:31N 33°44' W 118°17'0 0.3
2017-Sep-24 06:00N 33°44' W 118°17'0 0.0
2017-Sep-24 05:30N 33°44' W 118°17'0 0.0
2017-Sep-24 05:01N 33°44' W 118°17'0 0.0
2017-Sep-24 04:30N 33°44' W 118°17'0 0.0
2017-Sep-24 04:01N 33°44' W 118°17'0 0.0
2017-Sep-24 03:30N 33°44' W 118°17'0 0.0
2017-Sep-24 03:00N 33°44' W 118°17'0 0.0
2017-Sep-24 02:31N 33°44' W 118°17'0 0.0
2017-Sep-24 02:00N 33°44' W 118°17'0 0.0
2017-Sep-24 01:31N 33°44' W 118°17'0 0.0
2017-Sep-24 01:01N 33°44' W 118°17'0 0.0
2017-Sep-24 00:30N 33°44' W 118°17'0 0.0
2017-Sep-24 00:00N 33°44' W 118°17'0 0.0
2017-Sep-23 23:31N 33°44' W 118°17'0 0.0
2017-Sep-23 23:00N 33°44' W 118°17'0 0.0
2017-Sep-23 22:30N 33°44' W 118°17'0 0.0
2017-Sep-23 21:57N 33°44' W 118°17'0 0.0
2017-Sep-23 21:30N 33°44' W 118°17'0 0.0
2017-Sep-23 21:00N 33°44' W 118°17'0 0.0
2017-Sep-23 20:31N 33°44' W 118°17'0 0.0
2017-Sep-23 19:59N 33°44' W 118°17'3 0.1
2017-Sep-22 01:57N 33°45' W 118°13'0 0.4
2017-Sep-22 01:29N 33°45' W 118°13'3 6.2
2017-Sep-22 01:00N 33°43' W 118°15'2 4.2
2017-Sep-22 00:31N 33°44' W 118°17'0 0.0
2017-Sep-22 00:00N 33°44' W 118°17'0 0.0
2017-Sep-21 23:30N 33°44' W 118°17'0 0.0
2017-Sep-21 23:00N 33°44' W 118°17'0 0.0
2017-Sep-21 22:26N 33°44' W 118°17'0 0.0
2017-Sep-21 21:57N 33°44' W 118°17'0 0.0
2017-Sep-21 21:30N 33°44' W 118°17'0 0.0
2017-Sep-21 21:01N 33°44' W 118°17'0 0.0
2017-Sep-21 20:31N 33°44' W 118°17'0 0.0
2017-Sep-21 20:01N 33°44' W 118°17'0 0.0
2017-Sep-21 19:30N 33°44' W 118°17'0 0.0
2017-Sep-21 19:00N 33°44' W 118°17'0 0.0
2017-Sep-21 18:29N 33°44' W 118°17'1 1.3
2017-Sep-21 17:59N 33°44' W 118°16'0 0.0
2017-Sep-21 17:30N 33°44' W 118°16'0 0.0
2017-Sep-21 17:01N 33°44' W 118°16'0 0.0
2017-Sep-21 16:30N 33°44' W 118°16'1 1.3
2017-Sep-21 16:00N 33°44' W 118°17'0 0.0
2017-Sep-21 15:27N 33°44' W 118°17'0 0.7
2017-Sep-21 15:00N 33°45' W 118°16'0 0.7
2017-Sep-21 14:30N 33°45' W 118°16'1 2.3
2017-Sep-21 14:01N 33°44' W 118°16'2 3.3
2017-Sep-21 13:27N 33°43' W 118°15'1 2.9
2017-Sep-21 13:00N 33°43' W 118°16'1 2.5
2017-Sep-21 12:31N 33°44' W 118°17'0 0.0
2017-Sep-21 11:53N 33°44' W 118°17'1 3.0
2017-Sep-21 11:30N 33°44' W 118°16'1 1.1
2017-Sep-21 11:00N 33°44' W 118°15'1 2.2
2017-Sep-21 10:31N 33°43' W 118°16'1 1.5
2017-Sep-21 10:00N 33°44' W 118°15'0 0.6
2017-Sep-21 09:29N 33°44' W 118°15'1 2.7
2017-Sep-21 09:00N 33°44' W 118°17'0 0.9
2017-Sep-21 08:29N 33°44' W 118°17'0 0.0
2017-Sep-21 08:00N 33°44' W 118°17'0 0.0
2017-Sep-21 07:30N 33°44' W 118°17'0 0.0
2017-Sep-21 07:00N 33°44' W 118°17'0 0.0
2017-Sep-21 06:30N 33°44' W 118°17'0 0.0
2017-Sep-21 06:00N 33°44' W 118°17'0 0.0
2017-Sep-21 05:30N 33°44' W 118°17'0 0.0
2017-Sep-21 05:00N 33°44' W 118°17'0 0.0
2017-Sep-21 04:29N 33°44' W 118°17'0 0.0
2017-Sep-21 03:59N 33°44' W 118°17'0 0.0
2017-Sep-21 03:30N 33°44' W 118°17'0 0.0
2017-Sep-21 03:00N 33°44' W 118°17'0 0.0
2017-Sep-21 02:30N 33°44' W 118°17'0 0.0
2017-Sep-21 02:00N 33°44' W 118°17'0 0.0
2017-Sep-21 01:30N 33°44' W 118°17'1 1.7
2017-Sep-21 01:00N 33°44' W 118°16'1 2.3
2017-Sep-21 00:30N 33°45' W 118°16'2 3.4
2017-Sep-21 00:00N 33°46' W 118°15'1 2.6
2017-Sep-20 23:30N 33°45' W 118°16'0 0.1
2017-Sep-20 23:00N 33°45' W 118°16'1 2.2
2017-Sep-20 22:30N 33°44' W 118°17'2 4.0
2017-Sep-20 22:00N 33°43' W 118°15'1 2.7
2017-Sep-20 21:30N 33°43' W 118°16'1 2.1
2017-Sep-20 20:59N 33°44' W 118°17'0 0.0
2017-Sep-20 20:30N 33°44' W 118°17'0 0.1
2017-Sep-20 20:00N 33°44' W 118°17'1 2.8
2017-Sep-20 19:30N 33°46' W 118°16'0 0.1
2017-Sep-20 19:00N 33°46' W 118°16'1 1.9
2017-Sep-20 18:30N 33°45' W 118°16'0 0.8
2017-Sep-20 18:00N 33°44' W 118°17'0 0.0
2017-Sep-20 17:30N 33°44' W 118°17'0 0.0
2017-Sep-20 17:00N 33°44' W 118°17'0 0.0
2017-Sep-20 16:30N 33°44' W 118°17'0 0.0
2017-Sep-20 16:00N 33°44' W 118°17'0 0.0
2017-Sep-20 15:30N 33°44' W 118°17'0 0.0
2017-Sep-20 14:59N 33°44' W 118°17'0 0.0
2017-Sep-20 14:00N 33°44' W 118°17'1 1.2
2017-Sep-20 13:30N 33°45' W 118°16'1 1.5
2017-Sep-20 12:59N 33°46' W 118°16'1 1.2
2017-Sep-20 12:30N 33°45' W 118°16'1 2.0
2017-Sep-20 12:00N 33°44' W 118°17'2 4.1
2017-Sep-20 11:30N 33°43' W 118°15'1 2.4
2017-Sep-20 11:00N 33°44' W 118°15'0 0.9
2017-Sep-20 10:30N 33°44' W 118°15'1 2.7
2017-Sep-20 10:00N 33°43' W 118°15'2 3.8
2017-Sep-20 09:30N 33°44' W 118°16'1 1.1
2017-Sep-20 08:57N 33°44' W 118°17'0 0.0
2017-Sep-20 08:26N 33°44' W 118°17'0 0.0
2017-Sep-20 07:59N 33°44' W 118°17'0 0.0
2017-Sep-20 07:30N 33°44' W 118°17'0 0.0
2017-Sep-20 07:00N 33°44' W 118°17'0 0.0
2017-Sep-20 06:26N 33°44' W 118°17'0 0.0
2017-Sep-20 05:58N 33°44' W 118°17'0 0.0
2017-Sep-20 05:28N 33°44' W 118°17'0 0.0
2017-Sep-20 04:57N 33°44' W 118°17'0 0.0
2017-Sep-20 04:30N 33°44' W 118°17'0 0.0
2017-Sep-20 03:59N 33°44' W 118°17'0 0.0
2017-Sep-20 03:30N 33°44' W 118°17'0 0.0
2017-Sep-20 03:00N 33°44' W 118°17'0 0.0
2017-Sep-20 02:30N 33°44' W 118°17'0 0.0
2017-Sep-20 02:00N 33°44' W 118°17'0 0.0
2017-Sep-20 01:29N 33°44' W 118°17'3 5.7
2017-Sep-20 01:00N 33°43' W 118°14'2 3.9
2017-Sep-20 00:30N 33°43' W 118°16'2 4.9
2017-Sep-20 00:00N 33°46' W 118°16'1 2.0
2017-Sep-19 23:30N 33°46' W 118°14'0 0.6
2017-Sep-19 23:00N 33°46' W 118°15'2 4.3
2017-Sep-19 22:31N 33°44' W 118°17'0 0.1
2017-Sep-19 21:59N 33°44' W 118°17'0 0.1
2017-Sep-19 21:29N 33°44' W 118°17'0 0.0
2017-Sep-19 21:00N 33°44' W 118°17'1 1.4
2017-Sep-19 20:31N 33°45' W 118°16'1 2.0
2017-Sep-19 20:01N 33°46' W 118°16'0 0.2
2017-Sep-19 19:31N 33°46' W 118°16'0 0.7
2017-Sep-19 19:01N 33°45' W 118°16'1 2.2
2017-Sep-19 18:25N 33°44' W 118°17'0 0.0
2017-Sep-19 18:00N 33°44' W 118°17'0 0.0
2017-Sep-19 17:30N 33°44' W 118°17'0 0.0
2017-Sep-19 16:58N 33°44' W 118°17'0 0.0
2017-Sep-19 16:29N 33°44' W 118°17'0 0.0
2017-Sep-19 15:56N 33°44' W 118°17'0 0.0
2017-Sep-19 15:29N 33°44' W 118°17'1 2.2
2017-Sep-19 15:00N 33°43' W 118°16'3 6.1
2017-Sep-19 14:30N 33°45' W 118°13'1 2.8
2017-Sep-19 14:01N 33°46' W 118°13'0 0.0
2017-Sep-19 13:28N 33°46' W 118°13'0 0.3
2017-Sep-19 13:00N 33°46' W 118°13'1 2.4
2017-Sep-19 12:29N 33°45' W 118°13'1 2.1
2017-Sep-19 11:59N 33°44' W 118°13'1 2.4
2017-Sep-19 11:26N 33°45' W 118°14'0 0.1
2017-Sep-19 10:58N 33°45' W 118°14'1 1.2
2017-Sep-19 10:30N 33°45' W 118°13'2 1.8
2017-Sep-19 09:33N 33°44' W 118°12'0 0.1
2017-Sep-19 09:13N 33°44' W 118°12'0 0.2
2017-Sep-19 08:50N 33°44' W 118°12'1 3.2
2017-Sep-19 08:29N 33°45' W 118°12'0 0.9
2017-Sep-19 08:00N 33°44' W 118°12'1 1.5
2017-Sep-19 07:19N 33°45' W 118°13'0 0.0
2017-Sep-19 06:42N 33°45' W 118°13'0 0.0
2017-Sep-19 06:30N 33°45' W 118°13'0 0.0
2017-Sep-19 04:12N 33°45' W 118°13'0 0.0
2017-Sep-19 03:59N 33°45' W 118°13'1 1.4
2017-Sep-19 03:30N 33°46' W 118°13'0 0.8
2017-Sep-19 03:00N 33°46' W 118°13'1 1.9
2017-Sep-19 02:29N 33°45' W 118°13'0 0.6
2017-Sep-19 01:57N 33°45' W 118°13'1 1.6
2017-Sep-19 01:30N 33°45' W 118°14'0 0.5
2017-Sep-19 00:59N 33°45' W 118°14'1 2.0
2017-Sep-19 00:31N 33°45' W 118°13'0 0.0
2017-Sep-18 23:59N 33°45' W 118°13'0 0.0
2017-Sep-18 23:30N 33°45' W 118°13'0 0.4
2017-Sep-18 23:01N 33°45' W 118°13'1 1.5
2017-Sep-18 22:30N 33°44' W 118°12'3 5.9
2017-Sep-18 22:00N 33°42' W 118°11'1 1.7
2017-Sep-18 21:30N 33°42' W 118°11'3 5.7
2017-Sep-18 21:00N 33°45' W 118°13'1 1.3
2017-Sep-18 20:31N 33°44' W 118°12'3 5.9
2017-Sep-18 20:01N 33°44' W 118°09'2 4.6
2017-Sep-18 19:31N 33°44' W 118°12'4 7.8
2017-Sep-18 19:00N 33°44' W 118°16'1 2.0
2017-Sep-18 18:31N 33°44' W 118°17'0 0.0
2017-Sep-18 18:01N 33°44' W 118°17'0 0.0
2017-Sep-18 17:30N 33°44' W 118°17'0 0.0
2017-Sep-18 17:00N 33°44' W 118°17'0 0.0
2017-Sep-18 16:28N 33°44' W 118°17'0 0.0
2017-Sep-18 15:59N 33°44' W 118°17'0 0.0
2017-Sep-18 15:30N 33°44' W 118°17'0 0.0
2017-Sep-18 14:58N 33°44' W 118°17'0 0.0
2017-Sep-18 14:30N 33°44' W 118°17'0 0.0
2017-Sep-18 14:00N 33°44' W 118°17'0 0.0
2017-Sep-18 13:31N 33°44' W 118°17'0 0.2
2017-Sep-18 12:59N 33°44' W 118°17'1 2.3
2017-Sep-18 12:30N 33°44' W 118°16'0 0.5
2017-Sep-18 12:00N 33°44' W 118°16'0 0.0
2017-Sep-18 11:29N 33°44' W 118°16'0 0.0
2017-Sep-18 11:00N 33°44' W 118°16'2 3.2
2017-Sep-18 10:30N 33°43' W 118°14'1 2.4
2017-Sep-18 10:00N 33°44' W 118°13'1 2.2
2017-Sep-18 09:29N 33°45' W 118°13'0 0.3
2017-Sep-18 08:59N 33°45' W 118°13'1 1.0
2017-Sep-18 08:27N 33°45' W 118°13'3 6.6
2017-Sep-18 08:00N 33°43' W 118°16'1 2.7
2017-Sep-18 07:30N 33°44' W 118°17'0 0.0
2017-Sep-18 07:00N 33°44' W 118°17'0 0.0
2017-Sep-18 06:21N 33°44' W 118°17'0 0.0
2017-Sep-18 06:01N 33°44' W 118°17'0 0.0
2017-Sep-18 05:30N 33°44' W 118°17'0 0.0
2017-Sep-18 05:01N 33°44' W 118°17'0 0.0
2017-Sep-18 04:29N 33°44' W 118°17'0 0.0
2017-Sep-18 04:01N 33°44' W 118°17'0 0.0
2017-Sep-18 03:28N 33°44' W 118°17'0 0.0
2017-Sep-18 02:59N 33°44' W 118°17'0 0.0
2017-Sep-18 02:30N 33°44' W 118°17'0 0.0
2017-Sep-18 02:01N 33°44' W 118°17'0 0.0
2017-Sep-18 01:27N 33°44' W 118°17'2 4.1
2017-Sep-18 01:00N 33°43' W 118°15'3 6.5
2017-Sep-18 00:31N 33°45' W 118°13'1 1.8
2017-Sep-17 23:59N 33°46' W 118°14'1 1.8
2017-Sep-17 23:31N 33°46' W 118°13'3 6.6
2017-Sep-17 23:01N 33°43' W 118°15'2 3.7
2017-Sep-17 22:31N 33°44' W 118°17'0 0.0
2017-Sep-17 21:59N 33°44' W 118°17'0 0.0
2017-Sep-17 21:28N 33°44' W 118°17'0 0.0
2017-Sep-17 21:00N 33°44' W 118°17'0 0.0
2017-Sep-17 20:31N 33°44' W 118°17'0 0.0
2017-Sep-17 19:59N 33°44' W 118°17'0 0.0
2017-Sep-17 19:30N 33°44' W 118°17'0 0.0
2017-Sep-17 18:57N 33°44' W 118°17'0 0.0
2017-Sep-17 18:29N 33°44' W 118°17'0 0.0
2017-Sep-17 18:01N 33°44' W 118°17'0 0.0
2017-Sep-17 17:30N 33°44' W 118°17'0 0.0
2017-Sep-17 16:48N 33°44' W 118°17'0 0.0
2017-Sep-17 16:24N 33°44' W 118°17'0 0.0
2017-Sep-17 15:56N 33°44' W 118°17'0 0.8
2017-Sep-17 15:31N 33°44' W 118°17'3 5.4
2017-Sep-17 15:00N 33°44' W 118°13'2 3.9
2017-Sep-17 14:27N 33°46' W 118°13'0 0.0
2017-Sep-17 13:46N 33°46' W 118°13'0 0.6
2017-Sep-17 13:24N 33°46' W 118°13'1 3.1
2017-Sep-17 12:59N 33°45' W 118°13'2 3.7
2017-Sep-17 12:28N 33°44' W 118°11'0 0.3
2017-Sep-17 11:59N 33°44' W 118°12'1 1.5
2017-Sep-17 11:28N 33°43' W 118°12'3 6.6
2017-Sep-17 10:59N 33°44' W 118°16'1 1.4
2017-Sep-17 10:29N 33°44' W 118°17'0 0.0
2017-Sep-17 09:53N 33°44' W 118°17'0 0.0
2017-Sep-17 09:29N 33°44' W 118°17'0 0.0
2017-Sep-17 09:01N 33°44' W 118°17'0 0.0
2017-Sep-17 08:31N 33°44' W 118°17'0 0.0
2017-Sep-17 08:00N 33°44' W 118°17'1 2.0
2017-Sep-17 07:29N 33°45' W 118°16'0 0.7
2017-Sep-17 06:57N 33°46' W 118°16'1 2.6
2017-Sep-17 06:30N 33°45' W 118°17'0 0.5
2017-Sep-17 06:00N 33°44' W 118°17'0 0.0
2017-Sep-17 05:27N 33°44' W 118°17'0 0.0
2017-Sep-17 04:58N 33°44' W 118°17'0 0.0
2017-Sep-17 04:30N 33°44' W 118°17'0 0.0
2017-Sep-17 03:59N 33°44' W 118°17'0 0.0
2017-Sep-17 03:29N 33°44' W 118°17'0 0.0
2017-Sep-17 02:59N 33°44' W 118°17'0 0.0
2017-Sep-17 02:30N 33°44' W 118°17'0 0.0
2017-Sep-17 01:59N 33°44' W 118°17'0 0.0
2017-Sep-17 01:31N 33°44' W 118°17'0 0.0
2017-Sep-17 00:53N 33°44' W 118°17'0 0.0
2017-Sep-17 00:30N 33°44' W 118°17'0 0.0
2017-Sep-16 23:59N 33°44' W 118°17'0 0.0
2017-Sep-16 23:30N 33°44' W 118°17'0 0.0
2017-Sep-16 22:59N 33°44' W 118°17'0 0.0
2017-Sep-16 22:30N 33°44' W 118°17'0 0.0
2017-Sep-16 22:00N 33°44' W 118°17'0 0.0
2017-Sep-16 21:30N 33°44' W 118°17'0 0.0
2017-Sep-16 21:00N 33°44' W 118°17'0 0.0
2017-Sep-16 20:30N 33°44' W 118°17'0 0.0
2017-Sep-16 20:00N 33°44' W 118°17'0 0.0
2017-Sep-16 19:30N 33°44' W 118°17'0 0.0
2017-Sep-16 18:58N 33°44' W 118°17'0 0.0
2017-Sep-16 18:31N 33°44' W 118°17'0 0.0
2017-Sep-16 18:00N 33°44' W 118°17'0 0.0
2017-Sep-16 17:28N 33°44' W 118°17'0 0.0
2017-Sep-16 16:53N 33°44' W 118°17'0 0.0
2017-Sep-16 16:30N 33°44' W 118°17'3 5.3
2017-Sep-16 15:55N 33°44' W 118°13'1 2.1
2017-Sep-16 15:20N 33°45' W 118°13'0 0.4
2017-Sep-16 14:11N 33°45' W 118°13'0 0.0
2017-Sep-16 13:57N 33°45' W 118°13'1 1.6
2017-Sep-16 13:25N 33°45' W 118°13'3 7.2
2017-Sep-16 13:00N 33°43' W 118°16'1 1.9
2017-Sep-16 12:15N 33°44' W 118°17'0 0.0
2017-Sep-16 12:00N 33°44' W 118°17'0 0.0
2017-Sep-16 11:24N 33°44' W 118°17'0 0.0
2017-Sep-16 10:59N 33°44' W 118°17'0 0.0
2017-Sep-16 10:26N 33°44' W 118°17'0 0.0
2017-Sep-16 09:58N 33°44' W 118°17'0 0.0
2017-Sep-16 09:29N 33°44' W 118°17'0 0.0
2017-Sep-16 08:59N 33°44' W 118°17'0 0.0
2017-Sep-16 08:29N 33°44' W 118°17'0 0.0
2017-Sep-16 08:01N 33°44' W 118°17'0 0.0
2017-Sep-16 07:27N 33°44' W 118°17'0 0.0
2017-Sep-16 06:59N 33°44' W 118°17'0 0.0
2017-Sep-16 06:30N 33°44' W 118°17'0 0.0
2017-Sep-16 06:00N 33°44' W 118°17'0 0.0
2017-Sep-16 05:30N 33°44' W 118°17'0 0.0
2017-Sep-16 05:01N 33°44' W 118°17'0 0.0
2017-Sep-16 04:29N 33°44' W 118°17'0 0.0
2017-Sep-16 04:00N 33°44' W 118°17'3 5.4
2017-Sep-16 03:30N 33°43' W 118°14'2 3.4
2017-Sep-16 02:59N 33°45' W 118°12'1 2.7
2017-Sep-16 02:30N 33°44' W 118°13'0 0.3
2017-Sep-16 02:00N 33°44' W 118°12'1 2.5
2017-Sep-16 01:30N 33°45' W 118°12'3 7.0
2017-Sep-16 01:01N 33°43' W 118°16'2 4.9
2017-Sep-16 00:30N 33°46' W 118°16'1 1.2
2017-Sep-16 00:01N 33°46' W 118°15'0 0.5
2017-Sep-15 23:30N 33°46' W 118°15'1 2.0
2017-Sep-15 23:00N 33°45' W 118°16'0 0.0
2017-Sep-15 22:31N 33°45' W 118°16'0 0.4
2017-Sep-15 22:01N 33°45' W 118°16'2 4.4
2017-Sep-15 21:31N 33°43' W 118°16'1 2.2
2017-Sep-15 21:01N 33°43' W 118°15'2 3.7
2017-Sep-15 20:30N 33°44' W 118°16'1 1.2
2017-Sep-15 20:00N 33°44' W 118°17'0 0.0
2017-Sep-15 19:31N 33°44' W 118°17'0 0.0
2017-Sep-15 19:00N 33°44' W 118°17'0 0.2
2017-Sep-15 18:28N 33°45' W 118°17'1 2.4
2017-Sep-15 17:59N 33°46' W 118°16'0 0.1
2017-Sep-15 17:30N 33°46' W 118°16'1 1.9
2017-Sep-15 17:00N 33°45' W 118°17'3 6.5
2017-Sep-15 16:30N 33°42' W 118°15'0 0.8
2017-Sep-15 15:57N 33°42' W 118°15'3 6.4
2017-Sep-15 15:30N 33°45' W 118°16'0 0.9
2017-Sep-15 14:59N 33°45' W 118°16'0 0.0
2017-Sep-15 14:30N 33°45' W 118°16'1 2.3
2017-Sep-15 14:01N 33°46' W 118°15'0 0.4
2017-Sep-15 13:30N 33°46' W 118°15'2 3.2
2017-Sep-15 13:00N 33°45' W 118°17'2 3.2
2017-Sep-15 12:30N 33°43' W 118°16'1 1.7
2017-Sep-15 12:00N 33°43' W 118°15'1 2.8
2017-Sep-15 11:31N 33°44' W 118°16'1 1.5
2017-Sep-15 10:57N 33°44' W 118°17'0 0.0
2017-Sep-15 10:21N 33°44' W 118°17'0 0.0
2017-Sep-15 09:57N 33°44' W 118°17'0 0.0
2017-Sep-15 09:27N 33°44' W 118°17'0 0.0
2017-Sep-15 09:01N 33°44' W 118°17'0 0.0
2017-Sep-15 08:29N 33°44' W 118°17'0 0.0
2017-Sep-15 07:59N 33°44' W 118°17'0 0.0
2017-Sep-15 07:31N 33°44' W 118°17'0 0.0
2017-Sep-15 07:00N 33°44' W 118°17'0 0.0
2017-Sep-15 06:28N 33°44' W 118°17'0 0.0
2017-Sep-15 06:01N 33°44' W 118°17'0 0.0
2017-Sep-15 05:27N 33°44' W 118°17'0 0.0
2017-Sep-15 05:01N 33°44' W 118°17'0 0.0
2017-Sep-15 04:30N 33°44' W 118°17'0 0.0
2017-Sep-15 03:55N 33°44' W 118°17'0 0.0
2017-Sep-15 03:31N 33°44' W 118°17'0 0.0
2017-Sep-15 03:00N 33°44' W 118°17'0 0.0
2017-Sep-15 02:29N 33°44' W 118°17'0 0.0
2017-Sep-15 02:00N 33°44' W 118°17'0 0.0
2017-Sep-15 01:31N 33°44' W 118°17'0 0.0
2017-Sep-15 01:01N 33°44' W 118°17'0 0.0
2017-Sep-15 00:31N 33°44' W 118°17'0 0.0
2017-Sep-14 23:58N 33°44' W 118°17'0 0.0
2017-Sep-14 23:31N 33°44' W 118°17'0 0.0
2017-Sep-14 23:01N 33°44' W 118°17'0 0.0
2017-Sep-14 22:30N 33°44' W 118°17'0 0.0
2017-Sep-14 22:01N 33°44' W 118°17'0 0.0
2017-Sep-14 21:30N 33°44' W 118°17'0 0.0
2017-Sep-14 21:00N 33°44' W 118°17'3 5.2
2017-Sep-14 20:30N 33°43' W 118°14'2 4.6
2017-Sep-14 20:00N 33°45' W 118°13'0 0.0
2017-Sep-14 19:30N 33°45' W 118°13'0 0.0
2017-Sep-14 19:00N 33°45' W 118°13'0 0.2
2017-Sep-14 18:30N 33°45' W 118°13'0 0.2
2017-Sep-14 18:01N 33°45' W 118°13'0 0.5
2017-Sep-14 17:31N 33°45' W 118°13'2 4.4
2017-Sep-14 17:01N 33°44' W 118°11'0 0.9
2017-Sep-14 16:31N 33°44' W 118°12'1 1.8
2017-Sep-14 16:01N 33°43' W 118°13'3 6.4
2017-Sep-14 15:30N 33°44' W 118°17'0 0.5
2017-Sep-14 15:00N 33°44' W 118°17'0 0.0
2017-Sep-14 14:30N 33°44' W 118°17'  

Dump ship's entire track history